Time;durP1;ratioP1;P1;durP2;ratioP2;P2;SDS_P1;SDS_P2;PMS_P1;PMS_P2;Temp;Humidity;BMP_temperature;BMP_pressure;BME280_temperature;BME280_humidity;BME280_pressure;Samples;Min_cycle;Max_cycle;Signal;HPM_P1;HPM_P2
2022/09/22 00:01:28;;;;;;;11.27;7.82;;;;;;;-148.88;94.07;77067.25;5018887;28;20514;-84
2022/09/22 00:03:56;;;;;;;11.48;7.82;;;;;;;-148.88;94.91;77077.41;5020696;28;20025;-84
2022/09/22 00:06:25;;;;;;;10.40;5.28;;;;;;;-148.88;95.14;77073.34;5019359;28;20030;-84
2022/09/22 00:08:54;;;;;;;11.02;7.28;;;;;;;-148.88;95.43;77081.47;5019392;28;20047;-85
2022/09/22 00:11:22;;;;;;;13.98;7.55;;;;;;;-148.88;95.21;77089.59;5019200;28;20113;-84
2022/09/22 00:13:54;;;;;;;11.02;8.05;;;;;;;-148.88;95.45;77087.56;5036688;28;20080;-83
2022/09/22 00:16:23;;;;;;;11.07;5.55;;;;;;;-148.88;95.53;77089.59;5018781;28;20025;-83
2022/09/22 00:18:48;;;;;;;10.77;8.05;;;;;;;-148.88;95.91;77085.53;5036631;28;20021;-84
2022/09/22 00:21:23;;;;;;;15.98;8.60;;;;;;;-148.88;95.98;77089.59;5037102;28;20048;-84
2022/09/22 00:23:52;;;;;;;11.93;6.32;;;;;;;-148.88;96.20;77093.66;5019994;28;20029;-84
2022/09/22 00:26:22;;;;;;;12.80;7.80;;;;;;;-148.88;96.18;77089.59;5019426;28;20021;-83
2022/09/22 00:28:51;;;;;;;12.27;7.60;;;;;;;-148.88;96.53;77089.59;5037014;28;20148;-85
2022/09/22 00:31:20;;;;;;;13.00;8.00;;;;;;;-148.88;96.25;77087.56;5019059;28;20112;-84
2022/09/22 00:33:49;;;;;;;8.88;6.80;;;;;;;-148.88;96.17;77089.59;5037164;28;20113;-84
2022/09/22 00:36:17;;;;;;;10.68;6.85;;;;;;;-148.88;96.54;77099.75;5037126;28;20025;-85
2022/09/22 00:38:45;;;;;;;8.43;4.90;;;;;;;-148.88;96.62;77099.75;5019692;28;20036;-84
2022/09/22 00:41:17;;;;;;;8.25;5.30;;;;;;;-148.88;96.76;77105.84;5037622;28;20041;-85
2022/09/22 00:43:47;;;;;;;10.63;4.68;;;;;;;-148.88;97.04;77101.78;5019201;28;20032;-84
2022/09/22 00:46:25;;;;;;;9.80;5.43;;;;;;;-148.88;96.69;77103.81;5036954;28;20520;-85
2022/09/22 00:51:29;;;;;;;10.05;6.50;;;;;;;-148.88;96.67;77114.00;5073440;28;20044;-89
2022/09/22 00:53:56;;;;;;;7.35;4.78;;;;;;;-148.88;96.85;77116.03;5076157;28;20025;-89
2022/09/22 00:56:26;;;;;;;9.15;6.07;;;;;;;-148.88;97.42;77109.94;5075081;28;20025;-89
2022/09/22 00:58:59;;;;;;;6.88;4.55;;;;;;;-148.88;97.61;77114.00;5057177;28;20017;-89
2022/09/22 01:01:25;;;;;;;8.15;4.13;;;;;;;-148.88;97.72;77118.06;5094884;28;20056;-89
2022/09/22 01:03:51;;;;;;;8.82;6.10;;;;;;;-148.88;97.48;77116.03;5094979;28;20051;-89
2022/09/22 01:06:23;;;;;;;7.93;4.38;;;;;;;-148.88;97.48;77118.06;5094722;28;20020;-89
2022/09/22 01:08:49;;;;;;;11.63;5.93;;;;;;;-148.88;96.17;77142.44;5094735;28;20028;-89
2022/09/22 01:11:17;;;;;;;7.40;4.38;;;;;;;-148.88;96.81;77134.31;5094511;28;20083;-89
2022/09/22 01:14:02;;;;;;;9.95;6.45;;;;;;;-148.88;96.85;77140.41;5094129;28;20031;-89
2022/09/22 01:16:36;;;;;;;8.73;5.75;;;;;;;-148.88;96.50;77142.44;5094842;28;20023;-89
2022/09/22 01:19:32;;;;;;;6.35;3.92;;;;;;;-148.88;96.83;77138.38;5076989;28;20024;-89
2022/09/22 01:22:36;;;;;;;7.80;5.40;;;;;;;-148.88;96.03;77154.63;5075954;28;20035;-89
2022/09/22 01:25:10;;;;;;;7.13;4.05;;;;;;;-148.88;96.54;77154.63;5075877;28;20474;-89
2022/09/22 01:28:02;;;;;;;6.85;4.00;;;;;;;-148.88;96.66;77164.78;5094238;28;20028;-89
2022/09/22 01:30:51;;;;;;;5.80;3.30;;;;;;;-148.88;97.31;77154.63;5076220;28;20066;-89
2022/09/22 01:33:28;;;;;;;9.38;5.85;;;;;;;-148.88;97.89;77156.66;5076640;28;20065;-89
2022/09/22 01:36:09;;;;;;;7.80;3.80;;;;;;;-148.88;97.88;77144.47;5076858;28;20074;-88
2022/09/22 01:38:36;;;;;;;6.88;3.60;;;;;;;-148.88;98.21;77140.41;5094725;28;20039;-87
2022/09/22 01:41:43;;;;;;;7.35;4.30;;;;;;;-148.88;97.98;77152.59;5076160;28;20024;-88
2022/09/22 01:44:16;;;;;;;6.60;3.67;;;;;;;-148.88;98.04;77152.59;5012412;28;20026;-87
2022/09/22 01:46:54;;;;;;;8.10;4.40;;;;;;;-148.88;98.00;77158.69;5012029;28;20544;-88
2022/09/22 01:49:34;;;;;;;8.10;4.05;;;;;;;-148.88;97.92;77154.63;5044786;28;20032;-88
2022/09/22 01:52:08;;;;;;;11.88;4.38;;;;;;;-148.88;98.09;77162.75;5075520;28;20055;-88
2022/09/22 01:54:42;;;;;;;7.00;5.20;;;;;;;-148.88;97.58;77166.81;5075513;28;20028;-87
2022/09/22 01:57:20;;;;;;;7.95;3.95;;;;;;;-148.88;98.43;77170.88;5094926;28;20024;-87
2022/09/22 01:59:52;;;;;;;8.07;4.25;;;;;;;-148.88;98.69;77168.84;5093534;28;20062;-87
2022/09/22 02:02:57;;;;;;;6.57;3.95;;;;;;;-148.88;99.10;77156.66;5075618;28;20073;-87
2022/09/22 02:05:36;;;;;;;6.60;4.55;;;;;;;-148.88;99.34;77158.69;4995078;28;20412;-86
2022/09/22 02:08:08;;;;;;;6.32;4.00;;;;;;;-148.88;99.42;77158.69;5085411;28;20482;-87
2022/09/22 02:10:37;;;;;;;9.50;5.28;;;;;;;-148.88;99.36;77158.69;5075044;28;20024;-87
2022/09/22 02:13:03;;;;;;;9.68;5.88;;;;;;;-148.88;99.28;77162.75;5093523;28;20047;-87
2022/09/22 02:18:18;;;;;;;5.78;3.60;;;;;;;-148.88;99.47;77162.75;5093752;28;20433;-87
2022/09/22 02:20:44;;;;;;;7.40;4.22;;;;;;;-148.88;99.35;77162.75;5093362;28;20024;-87
2022/09/22 02:23:09;;;;;;;11.65;4.38;;;;;;;-148.88;99.28;77170.88;5093037;28;20081;-87
2022/09/22 02:25:36;;;;;;;7.35;4.30;;;;;;;-148.88;99.94;77166.81;5094278;28;20390;-86
2022/09/22 02:28:02;;;;;;;8.85;4.68;;;;;;;-148.88;100.00;77162.75;5093123;28;20027;-87
2022/09/22 02:30:28;;;;;;;6.18;3.75;;;;;;;-148.88;100.00;77168.84;5093320;28;20016;-87
2022/09/22 02:32:55;;;;;;;7.95;4.00;;;;;;;-148.88;100.00;77168.84;5093526;28;20031;-87
2022/09/22 02:35:25;;;;;;;8.00;3.65;;;;;;;-148.88;100.00;77164.78;5093370;28;20036;-87
2022/09/22 02:37:56;;;;;;;8.70;4.00;;;;;;;-148.88;100.00;77170.88;5093782;28;20339;-86
2022/09/22 02:40:26;;;;;;;9.43;4.05;;;;;;;-148.88;100.00;77166.81;5093724;28;20459;-87
2022/09/22 02:43:08;;;;;;;5.65;3.50;;;;;;;-148.88;100.00;77162.75;5093640;28;20502;-87
2022/09/22 02:45:36;;;;;;;7.63;4.70;;;;;;;-148.88;99.73;77170.88;5093176;28;20032;-87
2022/09/22 02:48:19;;;;;;;6.43;3.28;;;;;;;-148.88;99.35;77174.94;5075319;28;20031;-87
2022/09/22 02:50:44;;;;;;;6.82;4.00;;;;;;;-148.88;99.55;77176.97;5075018;28;20050;-87
2022/09/22 02:53:16;;;;;;;6.35;3.95;;;;;;;-148.88;99.88;77179.00;5093043;28;20047;-87
2022/09/22 02:55:41;;;;;;;6.28;3.63;;;;;;;-148.88;99.63;77179.00;5074848;28;20037;-87
2022/09/22 02:58:07;;;;;;;9.02;4.05;;;;;;;-148.88;99.21;77183.06;5092730;28;20099;-87
2022/09/22 03:00:33;;;;;;;5.95;3.13;;;;;;;-148.88;99.23;77189.16;5093298;28;20024;-87
2022/09/22 03:02:58;;;;;;;8.43;4.05;;;;;;;-148.88;98.72;77193.22;5093105;28;20024;-87
2022/09/22 03:05:24;;;;;;;7.75;4.13;;;;;;;-148.88;98.76;77199.31;5092770;28;20097;-87
2022/09/22 03:07:49;;;;;;;8.13;4.32;;;;;;;-148.88;98.94;77195.25;5074757;28;20024;-86
2022/09/22 03:10:15;;;;;;;8.38;4.97;;;;;;;-148.88;98.80;77197.28;5092464;28;20034;-87
2022/09/22 03:12:42;;;;;;;6.05;3.53;;;;;;;-148.88;98.84;77207.47;5092975;28;20024;-86
2022/09/22 03:15:09;;;;;;;7.78;5.13;;;;;;;-148.88;98.99;77199.31;5092467;28;20020;-87
2022/09/22 03:17:35;;;;;;;5.13;3.30;;;;;;;-148.88;99.08;77203.41;5092441;28;20040;-87
2022/09/22 03:20:01;;;;;;;6.53;3.47;;;;;;;-148.88;99.48;77203.41;5092449;28;20020;-87
2022/09/22 03:22:26;;;;;;;7.40;3.53;;;;;;;-148.88;99.71;77195.25;5092849;28;20107;-87
2022/09/22 03:24:51;;;;;;;8.32;3.35;;;;;;;-148.88;99.33;77197.28;5074591;28;20036;-86
2022/09/22 03:27:16;;;;;;;4.82;2.97;;;;;;;-148.88;99.42;77195.25;5092764;28;20023;-87
2022/09/22 03:29:42;;;;;;;5.68;2.78;;;;;;;-148.88;99.07;77197.28;5092564;28;20020;-86
2022/09/22 03:32:07;;;;;;;6.45;3.60;;;;;;;-148.88;99.10;77201.34;5092701;28;20084;-87
2022/09/22 03:34:32;;;;;;;6.22;3.38;;;;;;;-148.88;99.08;77203.41;5075061;28;20107;-87
2022/09/22 03:36:57;;;;;;;5.80;3.40;;;;;;;-148.88;99.59;77205.44;5077897;28;20028;-87
2022/09/22 03:39:23;;;;;;;6.22;3.20;;;;;;;-148.88;99.81;77205.44;5096339;28;20032;-87
2022/09/22 03:41:48;;;;;;;6.18;3.20;;;;;;;-148.88;99.45;77205.44;5096361;28;20046;-86
2022/09/22 03:44:13;;;;;;;7.78;3.00;;;;;;;-148.88;99.67;77211.53;5078857;28;20024;-87
2022/09/22 03:46:38;;;;;;;5.82;3.15;;;;;;;-148.88;99.85;77209.50;5096140;28;20031;-86
2022/09/22 03:49:04;;;;;;;6.95;3.38;;;;;;;-148.88;99.73;77207.47;5077735;28;20027;-87
2022/09/22 03:51:29;;;;;;;6.07;3.10;;;;;;;-148.88;99.65;77211.53;5096841;28;20035;-87
2022/09/22 03:53:55;;;;;;;5.63;3.22;;;;;;;-148.88;99.50;77215.59;5096159;28;20051;-87
2022/09/22 03:56:20;;;;;;;7.47;3.30;;;;;;;-148.88;99.61;77215.59;5077653;28;20482;-86
2022/09/22 03:58:45;;;;;;;8.35;3.35;;;;;;;-148.88;99.88;77219.66;5078061;28;20036;-87
2022/09/22 04:01:11;;;;;;;6.20;3.40;;;;;;;-148.88;99.89;77215.59;5095845;28;20340;-87
2022/09/22 04:03:37;;;;;;;7.22;3.25;;;;;;;-148.88;100.00;77211.53;5095864;28;20020;-87
2022/09/22 04:06:03;;;;;;;5.25;3.22;;;;;;;-148.88;100.00;77215.59;5095887;28;20030;-86
2022/09/22 04:08:28;;;;;;;6.55;3.25;;;;;;;-148.88;100.00;77217.63;5095786;28;20024;-87
2022/09/22 04:10:54;;;;;;;6.70;2.92;;;;;;;-148.88;99.44;77219.66;5095697;28;20138;-87
2022/09/22 04:13:19;;;;;;;5.30;3.35;;;;;;;-148.88;99.91;77213.56;5095782;28;20442;-88
2022/09/22 04:15:45;;;;;;;6.47;3.42;;;;;;;-148.88;99.53;77219.66;5095626;28;20055;-87
2022/09/22 04:18:13;;;;;;;6.88;3.92;;;;;;;-148.88;99.64;77221.69;5095745;28;20028;-87
2022/09/22 04:20:39;;;;;;;7.53;3.60;;;;;;;-148.88;99.97;77217.63;5095584;28;20024;-87
2022/09/22 04:23:05;;;;;;;8.23;3.75;;;;;;;-148.88;100.00;77219.66;5095889;28;20088;-87
2022/09/22 04:25:31;;;;;;;6.75;4.03;;;;;;;-148.88;100.00;77219.66;5095764;28;20028;-87
2022/09/22 04:27:56;;;;;;;10.85;4.57;;;;;;;-148.88;100.00;77215.59;5095997;28;20035;-88
2022/09/22 04:30:21;;;;;;;8.35;3.90;;;;;;;-148.88;100.00;77219.66;5096426;28;20527;-87
2022/09/22 04:32:47;;;;;;;8.20;4.40;;;;;;;-148.88;100.00;77227.78;5095702;28;20024;-88
2022/09/22 04:35:12;;;;;;;10.00;4.95;;;;;;;-148.88;100.00;77229.81;5077325;28;20475;-88
2022/09/22 04:37:37;;;;;;;7.45;4.22;;;;;;;-148.88;100.00;77227.78;5095670;28;20020;-88
2022/09/22 04:40:03;;;;;;;8.88;4.95;;;;;;;-148.88;100.00;77227.78;5095292;28;20428;-87
2022/09/22 04:42:28;;;;;;;7.00;4.15;;;;;;;-148.88;100.00;77235.91;5077196;28;20462;-88
2022/09/22 04:44:56;;;;;;;6.40;4.18;;;;;;;-148.88;100.00;77246.06;5077029;28;20107;-88
2022/09/22 04:47:21;;;;;;;7.18;4.03;;;;;;;-148.88;100.00;77235.91;5076012;28;20383;-89
2022/09/22 04:49:46;;;;;;;5.72;3.53;;;;;;;-148.88;100.00;77239.97;5094939;28;20135;-86
2022/09/22 04:52:11;;;;;;;6.55;3.85;;;;;;;-148.88;100.00;77235.91;5095124;28;20446;-86
2022/09/22 04:54:37;;;;;;;6.00;3.53;;;;;;;-148.88;100.00;77250.13;5095186;28;20050;-87
2022/09/22 04:57:02;;;;;;;7.75;4.15;;;;;;;-148.88;100.00;77246.06;5094855;28;20057;-88
2022/09/22 04:59:28;;;;;;;8.75;4.18;;;;;;;-148.88;100.00;77250.13;5094866;28;20020;-89
2022/09/22 05:01:54;;;;;;;6.15;4.35;;;;;;;-148.88;100.00;77260.28;5076814;28;20024;-88
2022/09/22 05:04:19;;;;;;;8.60;4.20;;;;;;;-148.88;100.00;77262.31;5094732;28;20118;-88
2022/09/22 05:06:45;;;;;;;9.63;4.65;;;;;;;-148.88;100.00;77266.38;5076428;28;20035;-88
2022/09/22 05:09:11;;;;;;;7.10;4.00;;;;;;;-148.88;100.00;77264.34;5076726;28;20023;-88
2022/09/22 05:11:38;;;;;;;6.18;3.80;;;;;;;-148.88;100.00;77272.47;5094983;28;20020;-87
2022/09/22 05:14:03;;;;;;;5.43;3.58;;;;;;;-148.88;100.00;77272.47;5094778;28;20046;-85
2022/09/22 05:16:30;;;;;;;6.57;4.03;;;;;;;-148.88;100.00;77276.53;5076511;28;20016;-88
2022/09/22 05:18:55;;;;;;;7.65;4.18;;;;;;;-148.88;100.00;77276.53;5095613;28;20135;-88
2022/09/22 05:21:21;;;;;;;7.28;4.07;;;;;;;-148.88;100.00;77276.53;5094336;28;20024;-88
2022/09/22 05:23:46;;;;;;;4.97;3.20;;;;;;;-148.88;100.00;77274.50;5094283;28;20027;-88
2022/09/22 05:26:11;;;;;;;6.07;3.35;;;;;;;-148.88;100.00;77272.47;5076311;28;20024;-88
2022/09/22 05:28:37;;;;;;;6.60;3.53;;;;;;;-148.88;100.00;77268.41;5094222;28;20162;-88
2022/09/22 05:31:03;;;;;;;6.10;3.50;;;;;;;-148.88;100.00;77268.41;5093936;28;20043;-88
2022/09/22 05:33:28;;;;;;;7.82;4.40;;;;;;;-148.88;100.00;77272.47;5094041;28;20019;-88
2022/09/22 05:35:53;;;;;;;7.40;3.58;;;;;;;-148.88;100.00;77270.44;5075848;28;20020;-87
2022/09/22 05:38:19;;;;;;;6.35;3.20;;;;;;;-148.88;100.00;77272.47;5093980;28;20034;-88
2022/09/22 05:40:46;;;;;;;6.47;3.40;;;;;;;-148.88;100.00;77272.47;5093747;28;20417;-88
2022/09/22 05:43:12;;;;;;;6.88;3.30;;;;;;;-148.88;100.00;77268.41;5094078;28;20059;-88
2022/09/22 05:45:37;;;;;;;5.38;3.13;;;;;;;-148.88;100.00;77264.34;5093889;28;20027;-88
2022/09/22 05:48:03;;;;;;;5.85;3.80;;;;;;;-148.88;100.00;77256.22;5075654;28;20050;-88
2022/09/22 05:50:28;;;;;;;6.22;3.67;;;;;;;-148.88;100.00;77248.09;5093723;28;20493;-88
2022/09/22 05:53:05;;;;;;;6.22;3.45;;;;;;;-148.88;100.00;77244.03;5094254;28;20024;-88
2022/09/22 05:55:30;;;;;;;6.00;3.13;;;;;;;-148.88;100.00;77242.00;5094324;28;20103;-88
2022/09/22 05:57:56;;;;;;;5.07;3.22;;;;;;;-148.88;100.00;77235.91;5093622;28;20060;-88
2022/09/22 06:00:21;;;;;;;7.30;3.35;;;;;;;-148.88;100.00;77237.94;5093524;28;20042;-88
2022/09/22 06:02:47;;;;;;;7.53;3.60;;;;;;;-148.88;100.00;77231.84;5093661;28;20035;-87
2022/09/22 06:05:12;;;;;;;7.15;3.28;;;;;;;-148.88;100.00;77231.84;5094366;28;20065;-88
2022/09/22 06:07:37;;;;;;;6.00;3.60;;;;;;;-148.88;100.00;77225.75;5075481;28;20416;-90
2022/09/22 06:10:03;;;;;;;11.25;3.92;;;;;;;-148.88;100.00;77223.72;5093441;28;20028;-89
2022/09/22 06:12:28;;;;;;;8.77;4.45;;;;;;;-148.88;100.00;77219.66;5093702;28;20032;-90
2022/09/22 06:14:55;;;;;;;7.53;4.25;;;;;;;-148.88;100.00;77219.66;5093748;28;20378;-89
2022/09/22 06:17:21;;;;;;;6.47;4.32;;;;;;;-148.88;100.00;77219.66;5094082;28;20016;-91
2022/09/22 06:19:49;;;;;;;9.27;4.50;;;;;;;-148.88;100.00;77211.53;5094294;28;20016;-89
2022/09/22 06:22:19;;;;;;;6.25;3.70;;;;;;;-148.88;100.00;77207.47;5093836;28;20032;-88
2022/09/22 06:24:44;;;;;;;8.32;4.07;;;;;;;-148.88;100.00;77215.59;5094114;28;20020;-89
2022/09/22 06:27:09;;;;;;;8.23;4.60;;;;;;;-148.88;100.00;77207.47;5093276;28;20035;-89
2022/09/22 06:29:36;;;;;;;9.48;4.38;;;;;;;-148.88;100.00;77205.44;5093964;28;20020;-88
2022/09/22 06:32:02;;;;;;;10.20;4.32;;;;;;;-148.88;100.00;77199.31;5093158;28;20028;-88
2022/09/22 06:34:27;;;;;;;8.73;4.32;;;;;;;-148.88;100.00;77199.31;5093345;28;20102;-88
2022/09/22 06:36:55;;;;;;;8.68;4.63;;;;;;;-148.88;100.00;77195.25;5093921;28;20032;-86
2022/09/22 06:39:22;;;;;;;7.60;4.88;;;;;;;-148.88;100.00;77189.16;5093817;28;20032;-88
2022/09/22 06:41:48;;;;;;;9.50;4.18;;;;;;;-148.88;100.00;77183.06;5093844;28;20111;-87
2022/09/22 06:44:14;;;;;;;8.75;5.00;;;;;;;-148.88;100.00;77176.97;5093663;28;20056;-87
2022/09/22 06:46:40;;;;;;;9.43;4.95;;;;;;;-148.88;100.00;77172.91;5078657;28;20028;-90
2022/09/22 06:49:06;;;;;;;11.35;5.60;;;;;;;-148.88;100.00;77170.88;5096633;28;20027;-90
2022/09/22 06:51:34;;;;;;;7.75;5.03;;;;;;;-148.88;100.00;77168.84;5094503;28;20032;-89
2022/09/22 06:54:03;;;;;;;11.15;5.85;;;;;;;-148.88;100.00;77162.75;5094255;28;20031;-91
2022/09/22 06:56:32;;;;;;;9.48;5.78;;;;;;;-148.88;100.00;77162.75;5094680;28;20537;-90
2022/09/22 06:58:57;;;;;;;9.73;6.28;;;;;;;-148.88;100.00;77146.50;5093632;28;20031;-90
2022/09/22 07:01:23;;;;;;;10.10;5.60;;;;;;;-148.88;100.00;77138.38;5093959;28;20115;-89
2022/09/22 07:03:49;;;;;;;11.13;5.85;;;;;;;-148.88;100.00;77130.25;5094062;28;20051;-89
2022/09/22 07:06:18;;;;;;;9.55;5.50;;;;;;;-148.88;100.00;77126.19;5094061;28;20016;-88
2022/09/22 07:08:46;;;;;;;7.15;5.03;;;;;;;-148.88;100.00;77122.13;5093706;28;20371;-90
2022/09/22 07:11:12;;;;;;;9.23;5.32;;;;;;;-148.88;100.00;77111.97;5095592;28;20416;-89
2022/09/22 07:13:40;;;;;;;8.65;6.35;;;;;;;-148.88;100.00;77097.72;5097491;28;20085;-89
2022/09/22 07:16:09;;;;;;;12.05;5.50;;;;;;;-148.88;100.00;77093.66;5096939;28;20054;-88
2022/09/22 07:18:41;;;;;;;10.88;5.55;;;;;;;-148.88;100.00;77079.44;5117144;28;20043;-89
2022/09/22 07:21:09;;;;;;;10.45;6.25;;;;;;;-148.88;100.00;77075.38;5095501;28;20208;-89
2022/09/22 07:23:35;;;;;;;9.45;5.47;;;;;;;-148.88;100.00;77063.19;5097098;28;20028;-90
2022/09/22 07:26:05;;;;;;;8.57;5.10;;;;;;;-148.88;100.00;77057.09;5097421;28;20046;-90
2022/09/22 07:28:33;;;;;;;9.07;4.85;;;;;;;-148.88;100.00;77046.94;5096904;28;20084;-89
2022/09/22 07:31:06;;;;;;;9.38;5.72;;;;;;;-148.88;100.00;77034.75;5096859;28;20043;-89
2022/09/22 07:33:32;;;;;;;10.00;5.87;;;;;;;-148.88;100.00;77016.47;5096979;28;20024;-89
2022/09/22 07:36:10;;;;;;;9.10;7.55;;;;;;;-148.88;100.00;77004.25;5096895;28;20260;-88
2022/09/22 07:38:37;;;;;;;11.23;8.02;;;;;;;-148.88;100.00;76979.88;5096875;28;20038;-89
2022/09/22 07:41:13;;;;;;;11.43;6.22;;;;;;;-148.88;100.00;76977.84;5096534;28;20020;-88
2022/09/22 07:43:39;;;;;;;7.85;5.25;;;;;;;-148.88;100.00;76963.63;5096601;28;20056;-90
2022/09/22 07:46:06;;;;;;;10.90;5.80;;;;;;;-148.88;100.00;76951.44;5078423;28;20024;-91
2022/09/22 07:48:35;;;;;;;13.48;8.07;;;;;;;-148.88;100.00;76931.13;5079057;28;20023;-90
2022/09/22 07:51:00;;;;;;;7.63;5.57;;;;;;;-148.88;100.00;76923.00;5078281;28;20027;-91
2022/09/22 07:53:26;;;;;;;11.27;7.18;;;;;;;-148.88;100.00;76904.72;5096490;28;20024;-90
2022/09/22 07:55:51;;;;;;;9.60;7.40;;;;;;;-148.88;100.00;76888.47;5078247;28;20024;-90
2022/09/22 07:58:16;;;;;;;9.80;5.22;;;;;;;-148.88;100.00;76870.16;5096595;28;20054;-90
2022/09/22 08:00:42;;;;;;;9.68;7.50;;;;;;;-148.88;100.00;76853.91;5096219;28;20018;-91
2022/09/22 08:03:07;;;;;;;10.20;6.75;;;;;;;-148.88;100.00;76843.75;5096360;28;20023;-90
2022/09/22 08:05:32;;;;;;;9.60;5.00;;;;;;;-148.88;100.00;76823.44;5096712;28;20024;-91
2022/09/22 08:08:01;;;;;;;12.68;6.75;;;;;;;-148.88;100.00;76807.19;5078428;28;20528;-91
2022/09/22 08:10:26;;;;;;;14.55;6.97;;;;;;;-148.88;100.00;76788.91;5096094;28;20428;-85
2022/09/22 08:12:53;;;;;;;11.85;6.15;;;;;;;-148.88;100.00;76768.59;5095854;28;20027;-86
2022/09/22 08:15:21;;;;;;;9.02;5.75;;;;;;;-148.88;97.32;76746.22;5095744;28;20020;-86
2022/09/22 08:17:46;;;;;;;9.30;6.60;;;;;;;-148.88;97.71;76729.97;5095717;28;20020;-86
2022/09/22 08:20:12;;;;;;;7.10;6.35;;;;;;;-148.88;98.54;76703.56;5095795;28;20024;-87
2022/09/22 08:22:37;;;;;;;7.70;5.70;;;;;;;-148.88;96.52;76687.31;5095459;28;20016;-87
2022/09/22 08:25:03;;;;;;;9.30;5.45;;;;;;;-148.88;96.42;76673.09;5077620;28;20023;-87
2022/09/22 08:27:29;;;;;;;7.65;5.32;;;;;;;-148.88;96.31;76658.88;5077495;28;20394;-86
2022/09/22 08:29:54;;;;;;;9.93;5.65;;;;;;;-148.88;94.94;76634.50;5077702;28;20047;-87
2022/09/22 08:32:19;;;;;;;9.45;5.18;;;;;;;-148.88;95.37;76616.22;5077460;28;20375;-86
2022/09/22 08:34:45;;;;;;;10.73;5.38;;;;;;;-148.88;96.59;76591.81;5095677;28;20020;-86
2022/09/22 08:37:11;;;;;;;8.30;5.63;;;;;;;-148.88;95.21;76569.47;5077135;28;20028;-87
2022/09/22 08:39:37;;;;;;;10.20;5.32;;;;;;;-148.88;94.57;76549.16;5095510;28;20390;-86
2022/09/22 08:42:09;;;;;;;7.15;4.85;;;;;;;-148.88;92.12;76543.06;5077170;28;20042;-86
2022/09/22 08:44:57;;;;;;;7.65;4.95;;;;;;;-148.88;91.84;76520.72;5077203;28;20097;-87
2022/09/22 08:53:31;;;;;;;8.30;4.80;;;;;;;-148.88;90.82;76443.53;5072067;28;20622;-86
2022/09/22 08:56:16;;;;;;;7.28;4.93;;;;;;;-148.88;89.82;76419.16;5095480;28;20028;-86
2022/09/22 08:58:54;;;;;;;7.35;5.15;;;;;;;-148.88;88.99;76406.94;5076852;28;20509;-87
2022/09/22 09:01:37;;;;;;;10.95;5.03;;;;;;;-148.88;89.16;76378.50;5094857;28;20020;-86
2022/09/22 09:04:20;;;;;;;8.10;4.68;;;;;;;-148.88;87.37;76346.00;5076697;28;20028;-86
2022/09/22 09:07:02;;;;;;;7.05;4.30;;;;;;;-148.88;85.17;76325.69;5094974;28;20058;-86
2022/09/22 09:09:59;;;;;;;8.88;4.28;;;;;;;-148.88;84.85;76309.44;5094920;28;20367;-85
2022/09/22 09:12:58;;;;;;;9.35;4.70;;;;;;;-148.88;87.43;76246.47;5094991;28;20102;-86
2022/09/22 09:15:48;;;;;;;6.35;3.45;;;;;;;-148.88;80.80;76238.34;5094983;28;20101;-86
2022/09/22 09:18:17;;;;;;;7.53;3.40;;;;;;;-148.88;79.61;76207.88;5094698;28;20024;-86
2022/09/22 09:20:45;;;;;;;6.22;3.15;;;;;;;-148.88;78.32;76175.38;5094643;28;20146;-86
2022/09/22 09:23:28;;;;;;;6.78;3.63;;;;;;;-148.88;76.99;76163.19;5076155;28;20073;-86
2022/09/22 09:25:55;;;;;;;8.20;3.88;;;;;;;-148.88;79.54;76128.66;5094700;28;20051;-86
2022/09/22 09:28:30;;;;;;;5.45;3.35;;;;;;;-148.88;74.36;76134.72;5094721;28;20028;-87
2022/09/22 09:31:09;;;;;;;8.27;3.10;;;;;;;-148.88;73.27;76102.22;5094254;28;20429;-86
2022/09/22 09:34:07;;;;;;;6.05;2.70;;;;;;;-148.88;71.95;76073.78;5075675;28;20054;-86
2022/09/22 09:36:38;;;;;;;5.72;2.38;;;;;;;-148.88;68.19;76029.09;5076882;28;20028;-86
2022/09/22 09:39:31;;;;;;;4.03;2.08;;;;;;;-148.88;65.48;75996.59;5076148;28;20393;-86
2022/09/22 09:41:59;;;;;;;6.07;2.00;;;;;;;-148.88;64.02;75984.41;5091161;28;20070;-86
2022/09/22 09:44:32;;;;;;;6.28;1.80;;;;;;;-148.88;65.95;75943.78;5094038;28;20028;-87
2022/09/22 09:47:08;;;;;;;6.43;2.13;;;;;;;-148.88;64.24;75905.19;5094335;28;20474;-86
2022/09/22 09:49:33;;;;;;;3.60;1.88;;;;;;;-148.88;61.06;75886.91;5093812;28;20063;-87
2022/09/22 09:52:00;;;;;;;3.47;1.80;;;;;;;-148.88;60.48;75872.69;5094077;28;20028;-87
2022/09/22 09:54:26;;;;;;;6.40;2.42;;;;;;;-148.88;59.62;75858.47;5075974;28;20020;-87
2022/09/22 09:57:10;;;;;;;4.25;2.20;;;;;;;-148.88;59.43;75825.97;5094036;28;20028;-86
2022/09/22 10:02:29;;;;;;;4.72;1.85;;;;;;;-148.88;58.02;75769.09;5093709;28;20066;-86
2022/09/22 10:04:57;;;;;;;2.85;1.55;;;;;;;-148.88;56.79;75767.06;5093765;28;20474;-87
2022/09/22 10:07:26;;;;;;;5.75;1.90;;;;;;;-148.88;56.46;75732.53;5075956;28;20110;-87
2022/09/22 10:09:53;;;;;;;5.45;2.55;;;;;;;-148.88;57.99;75710.19;5093403;28;20064;-87
2022/09/22 10:12:24;;;;;;;4.95;1.90;;;;;;;-148.88;54.47;75700.03;5093791;28;20019;-87
2022/09/22 10:14:52;;;;;;;6.80;2.40;;;;;;;-148.88;54.69;75667.53;5093490;28;20028;-86
2022/09/22 10:17:41;;;;;;;6.50;1.60;;;;;;;-148.88;52.93;75647.22;5075298;28;20038;-87
2022/09/22 10:20:15;;;;;;;6.35;1.95;;;;;;;-148.88;51.88;75635.03;5082884;28;20040;-87
2022/09/22 10:22:41;;;;;;;6.22;1.95;;;;;;;-148.88;52.28;75614.72;5093495;28;20103;-88
2022/09/22 10:25:18;;;;;;;4.18;1.80;;;;;;;-148.88;52.56;75580.22;5093290;28;20028;-87
2022/09/22 10:27:58;;;;;;;3.60;1.00;;;;;;;-148.88;48.52;75570.03;5093445;28;20020;-84
2022/09/22 10:30:24;;;;;;;2.70;1.10;;;;;;;-148.88;49.34;75553.81;5093218;28;20016;-85
2022/09/22 10:33:11;;;;;;;3.92;0.98;;;;;;;-148.88;49.78;75517.25;5093138;28;20062;-88
2022/09/22 10:35:38;;;;;;;2.97;1.10;;;;;;;-148.88;48.19;75507.09;5093552;28;20047;-88
2022/09/22 10:38:13;;;;;;;2.63;1.13;;;;;;;-148.88;49.06;75484.75;5093510;28;20111;-88
2022/09/22 10:40:43;;;;;;;2.20;0.90;;;;;;;-148.88;45.71;75507.09;5093238;28;20024;-88
2022/09/22 10:43:30;;;;;;;2.40;1.02;;;;;;;-148.88;48.31;75492.88;5093017;28;20024;-87
2022/09/22 10:46:16;;;;;;;3.22;0.98;;;;;;;-148.88;46.80;75478.66;5075402;28;20040;-87
2022/09/22 10:49:20;;;;;;;3.38;1.23;;;;;;;-148.88;45.48;75474.59;5093297;28;20030;-88
2022/09/22 10:51:57;;;;;;;3.65;1.27;;;;;;;-148.88;46.19;75468.50;5075010;28;20028;-88
2022/09/22 10:55:09;;;;;;;4.30;1.00;;;;;;;-148.88;45.68;75444.13;5093178;28;20054;-87
2022/09/22 10:57:49;;;;;;;2.67;0.80;;;;;;;-148.88;46.40;75448.19;5042565;28;20085;-88
2022/09/22 11:00:17;;;;;;;4.05;1.08;;;;;;;-148.88;45.55;75444.13;5093315;28;20020;-88
2022/09/22 11:03:00;;;;;;;2.60;0.70;;;;;;;-148.88;44.50;75436.00;5093098;28;20523;-89
2022/09/22 11:14:31;;;;;;;3.90;1.10;;;;;;;-148.88;43.97;75411.63;5093542;28;20530;-87
2022/09/22 11:17:03;;;;;;;6.28;1.20;;;;;;;-148.88;43.67;75389.28;5093037;28;20028;-89
2022/09/22 11:19:46;;;;;;;1.67;0.70;;;;;;;-148.88;44.40;75470.53;5093363;28;20470;-88
2022/09/22 11:22:23;;;;;;;;;;;;;;;-148.88;44.41;75543.66;5094320;28;20145;-88
2022/09/22 11:25:06;;;;;;;1.90;0.90;;;;;;;-148.88;47.39;75586.31;5093140;28;19907;-88
2022/09/22 11:28:21;;;;;;;3.20;1.27;;;;;;;-148.88;47.68;75622.84;5093357;28;20028;-88
2022/09/22 11:30:50;;;;;;;4.38;0.95;;;;;;;-148.88;48.27;75649.25;5030681;28;20490;-88
2022/09/22 11:33:43;;;;;;;4.28;1.30;;;;;;;-148.88;47.79;75635.03;5030938;28;20026;-88
2022/09/22 11:36:22;;;;;;;5.82;1.20;;;;;;;-148.88;46.89;75600.50;5061844;28;20058;-88
2022/09/22 11:39:18;;;;;;;3.47;1.10;;;;;;;-148.88;46.81;75537.56;5092943;28;20054;-88
2022/09/22 11:42:10;;;;;;;4.45;1.10;;;;;;;-148.88;45.57;75521.31;5111055;28;20012;-87
2022/09/22 11:45:06;;;;;;;6.00;1.20;;;;;;;-148.88;45.49;75561.94;5118246;28;20061;-88
2022/09/22 11:47:50;;;;;;;4.95;1.20;;;;;;;-148.88;46.10;75584.25;5095185;28;20028;-88
2022/09/22 11:50:23;;;;;;;4.00;1.10;;;;;;;-148.88;46.46;75472.56;5093072;28;20024;-88
2022/09/22 11:53:15;;;;;;;2.17;1.00;;;;;;;-148.88;42.41;75436.00;5075116;28;20023;-87
2022/09/22 11:55:59;;;;;;;2.90;1.13;;;;;;;-148.88;42.61;75377.09;5092958;28;20024;-88